Pagina principale
METAR-TAF:

METAR-TAF

Aeroporti :

Aeroporto di Ajaccio Napoleone Bonaparte

Ajaccio, Francia

latitudine: 41-55N, longitudine: 008-48E, altezza: 6 m

Osservazione

Il bollettino è stato emesso 35 minuti fa, alle 04:00 UTC
Vento 6 kt da nord-est
Temperature 18°C
Umidità 68%
Pressione 1016 hPa
Visibilità 10 km o più
nessuna nube inferiore a 1500 m e nessun cumulonembo

METAR: LFKJ 030400Z AUTO 04006KT CAVOK 18/12 Q1016 NOSIG

Ora: 06:35 (04:35 UTC)

Previsione

Il bollettino è stato emesso 2 ore e 35 minuti fa, alle 02:00 UTC
Previsione valida dal 03 alle 03 UTC al 04 alle 03 UTC
Vento 5 kt da nord-est
Visibilità 10 km o più
nessuna nube inferiore a 1500 m e nessun cumulonembo
Evoluzione graduale
dal 03 alle 07 UTC al 03 alle 09 UTC
Vento 12 kt da sud/sud-ovest
Evoluzione graduale
dal 03 alle 18 UTC al 03 alle 20 UTC
Vento 6 kt da nord-est

TAF: LFKJ 030200Z 0303/0403 05005KT CAVOK BECMG 0307/0309 21012KT BECMG 0318/0320 05006KT

Osservazioni e previsioni meteorologiche di più di 4000 aeroporti (messaggi METAR e TAF).

Le stazioni disponibili sono rappresentate dai dischi gialli e rossi sulla carta.

Puntare il mouse per vedere il nome della stazione.

Clicca sopra per visualizzare le osservazioni e previsioni meteorologiche.

Per cambiare la mappa : fare clic sui pulsanti verdi con una croce nera per ingrandire, il pulsante verde con un trattino per diminuire, o sulla freccia verde per le mappe adiacenti.


METAR-TAF: